sensor_id;sensor_type;location;lat;lon;timestamp;temperature;humidity
27534;DHT22;14973;51.460;7.008;2023-03-05T00:01:23;5.10;39.10
27534;DHT22;14973;51.460;7.008;2023-03-05T00:03:50;5.10;38.50
27534;DHT22;14973;51.460;7.008;2023-03-05T00:06:20;5.10;36.80
27534;DHT22;14973;51.460;7.008;2023-03-05T00:08:47;5.00;36.50
27534;DHT22;14973;51.460;7.008;2023-03-05T00:11:13;5.00;45.60
27534;DHT22;14973;51.460;7.008;2023-03-05T00:13:39;5.00;48.90
27534;DHT22;14973;51.460;7.008;2023-03-05T00:16:07;4.90;47.60
27534;DHT22;14973;51.460;7.008;2023-03-05T00:18:34;4.90;50.90
27534;DHT22;14973;51.460;7.008;2023-03-05T00:20:59;4.90;56.50
27534;DHT22;14973;51.460;7.008;2023-03-05T00:23:25;4.80;60.40
27534;DHT22;14973;51.460;7.008;2023-03-05T00:25:51;4.80;60.10
27534;DHT22;14973;51.460;7.008;2023-03-05T00:28:16;4.70;69.10
27534;DHT22;14973;51.460;7.008;2023-03-05T00:30:42;4.80;71.90
27534;DHT22;14973;51.460;7.008;2023-03-05T00:33:10;4.80;64.90
27534;DHT22;14973;51.460;7.008;2023-03-05T00:35:44;4.80;67.20
27534;DHT22;14973;51.460;7.008;2023-03-05T00:38:10;4.70;64.90
27534;DHT22;14973;51.460;7.008;2023-03-05T00:40:37;4.70;64.00
27534;DHT22;14973;51.460;7.008;2023-03-05T00:43:04;4.70;63.50
27534;DHT22;14973;51.460;7.008;2023-03-05T00:45:30;4.70;62.70
27534;DHT22;14973;51.460;7.008;2023-03-05T00:47:56;4.70;68.50
27534;DHT22;14973;51.460;7.008;2023-03-05T00:50:21;4.80;65.60
27534;DHT22;14973;51.460;7.008;2023-03-05T00:52:47;4.70;70.20
27534;DHT22;14973;51.460;7.008;2023-03-05T00:55:13;4.70;70.30
27534;DHT22;14973;51.460;7.008;2023-03-05T00:57:38;4.60;66.70
27534;DHT22;14973;51.460;7.008;2023-03-05T01:00:05;4.60;68.40
27534;DHT22;14973;51.460;7.008;2023-03-05T01:02:31;4.60;66.60
27534;DHT22;14973;51.460;7.008;2023-03-05T01:04:57;4.70;65.40
27534;DHT22;14973;51.460;7.008;2023-03-05T01:07:23;4.60;67.20
27534;DHT22;14973;51.460;7.008;2023-03-05T01:09:48;4.60;68.80
27534;DHT22;14973;51.460;7.008;2023-03-05T01:12:14;4.70;68.40
27534;DHT22;14973;51.460;7.008;2023-03-05T01:14:39;4.60;60.80
27534;DHT22;14973;51.460;7.008;2023-03-05T01:17:06;4.60;71.00
27534;DHT22;14973;51.460;7.008;2023-03-05T01:19:32;4.50;75.50
27534;DHT22;14973;51.460;7.008;2023-03-05T01:21:58;4.60;74.80
27534;DHT22;14973;51.460;7.008;2023-03-05T01:24:24;4.50;74.70
27534;DHT22;14973;51.460;7.008;2023-03-05T01:26:49;4.60;77.50
27534;DHT22;14973;51.460;7.008;2023-03-05T01:29:15;4.60;72.60
27534;DHT22;14973;51.460;7.008;2023-03-05T01:31:41;4.60;73.70
27534;DHT22;14973;51.460;7.008;2023-03-05T01:34:06;4.50;71.40
27534;DHT22;14973;51.460;7.008;2023-03-05T01:36:32;4.50;76.80
27534;DHT22;14973;51.460;7.008;2023-03-05T01:38:58;4.60;76.70
27534;DHT22;14973;51.460;7.008;2023-03-05T01:41:24;4.50;72.40
27534;DHT22;14973;51.460;7.008;2023-03-05T01:43:50;4.50;75.60
27534;DHT22;14973;51.460;7.008;2023-03-05T01:46:36;4.60;73.60
27534;DHT22;14973;51.460;7.008;2023-03-05T01:49:36;4.50;65.10
27534;DHT22;14973;51.460;7.008;2023-03-05T01:52:16;4.40;50.70
27534;DHT22;14973;51.460;7.008;2023-03-05T01:54:46;4.40;46.60
27534;DHT22;14973;51.460;7.008;2023-03-05T01:57:22;4.30;52.10
27534;DHT22;14973;51.460;7.008;2023-03-05T01:59:50;4.30;57.70
27534;DHT22;14973;51.460;7.008;2023-03-05T02:02:17;4.30;62.00
27534;DHT22;14973;51.460;7.008;2023-03-05T02:04:54;4.20;58.20
27534;DHT22;14973;51.460;7.008;2023-03-05T02:07:23;4.20;58.80
27534;DHT22;14973;51.460;7.008;2023-03-05T02:09:48;4.20;62.20
27534;DHT22;14973;51.460;7.008;2023-03-05T02:12:14;4.20;63.20
27534;DHT22;14973;51.460;7.008;2023-03-05T02:14:41;4.30;60.30
27534;DHT22;14973;51.460;7.008;2023-03-05T02:17:09;4.30;60.00
27534;DHT22;14973;51.460;7.008;2023-03-05T02:19:50;4.30;53.60
27534;DHT22;14973;51.460;7.008;2023-03-05T02:22:18;4.20;53.20
27534;DHT22;14973;51.460;7.008;2023-03-05T02:24:44;4.40;48.00
27534;DHT22;14973;51.460;7.008;2023-03-05T02:27:12;4.30;45.90
27534;DHT22;14973;51.460;7.008;2023-03-05T02:29:41;4.30;48.10
27534;DHT22;14973;51.460;7.008;2023-03-05T02:32:07;4.30;53.90
27534;DHT22;14973;51.460;7.008;2023-03-05T02:34:34;4.30;51.60
27534;DHT22;14973;51.460;7.008;2023-03-05T02:37:00;4.40;53.20
27534;DHT22;14973;51.460;7.008;2023-03-05T02:39:29;4.40;46.60
27534;DHT22;14973;51.460;7.008;2023-03-05T02:41:55;4.30;44.70
27534;DHT22;14973;51.460;7.008;2023-03-05T02:44:20;4.30;51.80
27534;DHT22;14973;51.460;7.008;2023-03-05T02:46:46;4.30;54.60
27534;DHT22;14973;51.460;7.008;2023-03-05T02:49:12;4.30;60.00
27534;DHT22;14973;51.460;7.008;2023-03-05T02:51:37;4.30;68.30
27534;DHT22;14973;51.460;7.008;2023-03-05T02:54:03;4.30;70.40
27534;DHT22;14973;51.460;7.008;2023-03-05T02:56:28;4.20;77.60
27534;DHT22;14973;51.460;7.008;2023-03-05T02:58:54;4.20;82.90
27534;DHT22;14973;51.460;7.008;2023-03-05T03:01:20;4.20;84.40
27534;DHT22;14973;51.460;7.008;2023-03-05T03:03:45;4.30;87.10
27534;DHT22;14973;51.460;7.008;2023-03-05T03:06:11;4.30;88.10
27534;DHT22;14973;51.460;7.008;2023-03-05T03:08:36;4.30;90.20
27534;DHT22;14973;51.460;7.008;2023-03-05T03:11:04;4.30;91.70
27534;DHT22;14973;51.460;7.008;2023-03-05T03:13:30;4.30;92.70
27534;DHT22;14973;51.460;7.008;2023-03-05T03:16:04;4.40;93.30
27534;DHT22;14973;51.460;7.008;2023-03-05T03:18:30;4.40;94.70
27534;DHT22;14973;51.460;7.008;2023-03-05T03:20:55;4.40;94.30
27534;DHT22;14973;51.460;7.008;2023-03-05T03:23:21;4.40;95.30
27534;DHT22;14973;51.460;7.008;2023-03-05T03:25:47;4.20;95.60
27534;DHT22;14973;51.460;7.008;2023-03-05T03:28:12;4.20;97.80
27534;DHT22;14973;51.460;7.008;2023-03-05T03:30:38;4.20;99.60
27534;DHT22;14973;51.460;7.008;2023-03-05T03:33:03;4.20;97.40
27534;DHT22;14973;51.460;7.008;2023-03-05T03:35:29;4.20;97.80
27534;DHT22;14973;51.460;7.008;2023-03-05T03:37:54;4.20;97.00
27534;DHT22;14973;51.460;7.008;2023-03-05T03:40:20;4.10;97.50
27534;DHT22;14973;51.460;7.008;2023-03-05T03:42:46;4.10;99.90
27534;DHT22;14973;51.460;7.008;2023-03-05T03:45:12;4.10;99.70
27534;DHT22;14973;51.460;7.008;2023-03-05T03:47:37;4.10;99.90
27534;DHT22;14973;51.460;7.008;2023-03-05T03:50:03;4.10;99.40
27534;DHT22;14973;51.460;7.008;2023-03-05T03:52:29;4.20;98.00
27534;DHT22;14973;51.460;7.008;2023-03-05T03:54:55;4.10;96.80
27534;DHT22;14973;51.460;7.008;2023-03-05T03:57:26;4.20;97.20
27534;DHT22;14973;51.460;7.008;2023-03-05T03:59:52;4.20;97.40
27534;DHT22;14973;51.460;7.008;2023-03-05T04:02:17;4.30;96.40
27534;DHT22;14973;51.460;7.008;2023-03-05T04:04:43;4.20;95.40
27534;DHT22;14973;51.460;7.008;2023-03-05T04:07:09;4.20;95.80
27534;DHT22;14973;51.460;7.008;2023-03-05T04:09:34;4.20;95.60
27534;DHT22;14973;51.460;7.008;2023-03-05T04:12:00;4.10;95.70
27534;DHT22;14973;51.460;7.008;2023-03-05T04:14:25;4.10;95.40
27534;DHT22;14973;51.460;7.008;2023-03-05T04:16:51;4.10;94.10
27534;DHT22;14973;51.460;7.008;2023-03-05T04:19:17;4.10;94.80
27534;DHT22;14973;51.460;7.008;2023-03-05T04:21:43;4.10;95.80
27534;DHT22;14973;51.460;7.008;2023-03-05T04:24:08;4.00;96.10
27534;DHT22;14973;51.460;7.008;2023-03-05T04:26:34;4.00;98.80
27534;DHT22;14973;51.460;7.008;2023-03-05T04:29:00;4.10;97.70
27534;DHT22;14973;51.460;7.008;2023-03-05T04:31:25;4.10;96.30
27534;DHT22;14973;51.460;7.008;2023-03-05T04:33:51;4.10;95.20
27534;DHT22;14973;51.460;7.008;2023-03-05T04:36:17;4.10;94.30
27534;DHT22;14973;51.460;7.008;2023-03-05T04:38:42;4.00;93.40
27534;DHT22;14973;51.460;7.008;2023-03-05T04:41:08;4.00;92.50
27534;DHT22;14973;51.460;7.008;2023-03-05T04:43:33;3.90;91.90
27534;DHT22;14973;51.460;7.008;2023-03-05T04:45:59;4.00;93.00
27534;DHT22;14973;51.460;7.008;2023-03-05T04:48:25;4.00;89.70
27534;DHT22;14973;51.460;7.008;2023-03-05T04:50:50;4.00;91.60
27534;DHT22;14973;51.460;7.008;2023-03-05T04:53:16;3.90;90.20
27534;DHT22;14973;51.460;7.008;2023-03-05T04:55:42;4.00;91.50
27534;DHT22;14973;51.460;7.008;2023-03-05T04:58:08;4.00;92.80
27534;DHT22;14973;51.460;7.008;2023-03-05T05:00:34;4.00;91.30
27534;DHT22;14973;51.460;7.008;2023-03-05T05:02:59;4.00;93.80
27534;DHT22;14973;51.460;7.008;2023-03-05T05:05:28;4.00;95.10
27534;DHT22;14973;51.460;7.008;2023-03-05T05:07:55;4.00;95.00
27534;DHT22;14973;51.460;7.008;2023-03-05T05:10:21;4.00;97.80
27534;DHT22;14973;51.460;7.008;2023-03-05T05:12:47;4.00;98.90
27534;DHT22;14973;51.460;7.008;2023-03-05T05:15:12;3.90;99.20
27534;DHT22;14973;51.460;7.008;2023-03-05T05:17:38;3.90;99.90
27534;DHT22;14973;51.460;7.008;2023-03-05T05:20:04;3.90;99.90
27534;DHT22;14973;51.460;7.008;2023-03-05T05:22:36;3.90;99.90
27534;DHT22;14973;51.460;7.008;2023-03-05T05:25:02;4.00;99.90
27534;DHT22;14973;51.460;7.008;2023-03-05T05:27:29;4.00;99.90
27534;DHT22;14973;51.460;7.008;2023-03-05T05:29:55;4.00;99.90
27534;DHT22;14973;51.460;7.008;2023-03-05T05:32:21;3.90;99.90
27534;DHT22;14973;51.460;7.008;2023-03-05T05:34:48;4.00;99.90
27534;DHT22;14973;51.460;7.008;2023-03-05T05:37:17;4.00;99.90
27534;DHT22;14973;51.460;7.008;2023-03-05T05:39:43;4.00;99.90
27534;DHT22;14973;51.460;7.008;2023-03-05T05:42:21;4.00;99.90
27534;DHT22;14973;51.460;7.008;2023-03-05T05:44:47;4.00;99.90
27534;DHT22;14973;51.460;7.008;2023-03-05T05:47:14;4.00;99.90
27534;DHT22;14973;51.460;7.008;2023-03-05T05:49:40;3.90;99.90
27534;DHT22;14973;51.460;7.008;2023-03-05T05:52:06;4.00;99.90
27534;DHT22;14973;51.460;7.008;2023-03-05T05:54:32;3.90;99.90
27534;DHT22;14973;51.460;7.008;2023-03-05T05:56:58;3.90;99.90
27534;DHT22;14973;51.460;7.008;2023-03-05T05:59:25;4.10;99.90
27534;DHT22;14973;51.460;7.008;2023-03-05T06:01:50;4.10;99.90
27534;DHT22;14973;51.460;7.008;2023-03-05T06:04:16;4.00;99.90
27534;DHT22;14973;51.460;7.008;2023-03-05T06:06:41;4.10;99.90
27534;DHT22;14973;51.460;7.008;2023-03-05T06:09:07;4.00;99.90
27534;DHT22;14973;51.460;7.008;2023-03-05T06:11:33;4.00;99.90
27534;DHT22;14973;51.460;7.008;2023-03-05T06:13:59;4.00;99.90
27534;DHT22;14973;51.460;7.008;2023-03-05T06:16:27;4.00;99.90
27534;DHT22;14973;51.460;7.008;2023-03-05T06:18:53;3.90;99.90
27534;DHT22;14973;51.460;7.008;2023-03-05T06:21:20;3.90;99.90
27534;DHT22;14973;51.460;7.008;2023-03-05T06:23:47;3.90;99.90
27534;DHT22;14973;51.460;7.008;2023-03-05T06:26:15;4.00;99.90
27534;DHT22;14973;51.460;7.008;2023-03-05T06:28:41;4.00;99.90
27534;DHT22;14973;51.460;7.008;2023-03-05T06:31:12;4.00;99.90
27534;DHT22;14973;51.460;7.008;2023-03-05T06:33:39;4.00;99.90
27534;DHT22;14973;51.460;7.008;2023-03-05T06:36:08;4.00;99.90
27534;DHT22;14973;51.460;7.008;2023-03-05T06:38:34;4.00;99.90
27534;DHT22;14973;51.460;7.008;2023-03-05T06:41:08;4.00;99.90
27534;DHT22;14973;51.460;7.008;2023-03-05T06:43:37;4.10;99.90
27534;DHT22;14973;51.460;7.008;2023-03-05T06:46:08;4.20;99.10
27534;DHT22;14973;51.460;7.008;2023-03-05T06:48:36;4.10;94.70
27534;DHT22;14973;51.460;7.008;2023-03-05T06:51:02;4.20;94.40
27534;DHT22;14973;51.460;7.008;2023-03-05T06:53:28;4.20;91.90
27534;DHT22;14973;51.460;7.008;2023-03-05T06:55:54;4.20;91.00
27534;DHT22;14973;51.460;7.008;2023-03-05T06:58:20;4.30;90.40
27534;DHT22;14973;51.460;7.008;2023-03-05T07:00:46;4.20;88.20
27534;DHT22;14973;51.460;7.008;2023-03-05T07:03:12;4.30;91.20
27534;DHT22;14973;51.460;7.008;2023-03-05T07:05:41;4.30;90.40
27534;DHT22;14973;51.460;7.008;2023-03-05T07:08:07;4.30;90.80
27534;DHT22;14973;51.460;7.008;2023-03-05T07:10:38;4.40;88.40
27534;DHT22;14973;51.460;7.008;2023-03-05T07:13:04;4.40;82.30
27534;DHT22;14973;51.460;7.008;2023-03-05T07:15:30;4.50;81.20
27534;DHT22;14973;51.460;7.008;2023-03-05T07:17:55;4.50;76.60
27534;DHT22;14973;51.460;7.008;2023-03-05T07:20:21;4.70;70.60
27534;DHT22;14973;51.460;7.008;2023-03-05T07:22:47;4.80;61.70
27534;DHT22;14973;51.460;7.008;2023-03-05T07:25:12;4.80;56.30
27534;DHT22;14973;51.460;7.008;2023-03-05T07:27:38;4.80;56.90
27534;DHT22;14973;51.460;7.008;2023-03-05T07:30:04;4.80;57.90
27534;DHT22;14973;51.460;7.008;2023-03-05T07:32:33;4.80;62.60
27534;DHT22;14973;51.460;7.008;2023-03-05T07:34:59;4.90;66.20
27534;DHT22;14973;51.460;7.008;2023-03-05T07:37:25;4.80;63.10
27534;DHT22;14973;51.460;7.008;2023-03-05T07:39:51;5.00;63.20
27534;DHT22;14973;51.460;7.008;2023-03-05T07:42:16;5.20;44.30
27534;DHT22;14973;51.460;7.008;2023-03-05T07:44:42;5.20;35.80
27534;DHT22;14973;51.460;7.008;2023-03-05T07:47:07;5.30;21.40
27534;DHT22;14973;51.460;7.008;2023-03-05T07:49:33;5.50;17.10
27534;DHT22;14973;51.460;7.008;2023-03-05T07:51:59;5.60;6.70
27534;DHT22;14973;51.460;7.008;2023-03-05T07:54:25;5.70;12.00
27534;DHT22;14973;51.460;7.008;2023-03-05T07:56:54;5.70;12.40
27534;DHT22;14973;51.460;7.008;2023-03-05T07:59:20;5.70;11.90
27534;DHT22;14973;51.460;7.008;2023-03-05T08:01:45;5.60;15.70
27534;DHT22;14973;51.460;7.008;2023-03-05T08:04:11;5.60;25.90
27534;DHT22;14973;51.460;7.008;2023-03-05T08:06:40;5.50;39.40
27534;DHT22;14973;51.460;7.008;2023-03-05T08:09:06;5.40;55.80
27534;DHT22;14973;51.460;7.008;2023-03-05T08:11:32;5.50;43.90
27534;DHT22;14973;51.460;7.008;2023-03-05T08:13:57;5.30;34.50
27534;DHT22;14973;51.460;7.008;2023-03-05T08:16:24;5.20;48.50
27534;DHT22;14973;51.460;7.008;2023-03-05T08:18:53;5.10;63.60
27534;DHT22;14973;51.460;7.008;2023-03-05T08:21:31;5.20;68.40
27534;DHT22;14973;51.460;7.008;2023-03-05T08:24:02;5.10;70.90
27534;DHT22;14973;51.460;7.008;2023-03-05T08:26:29;5.20;69.70
27534;DHT22;14973;51.460;7.008;2023-03-05T08:28:56;5.10;75.30
27534;DHT22;14973;51.460;7.008;2023-03-05T08:31:24;5.10;83.90
27534;DHT22;14973;51.460;7.008;2023-03-05T08:33:51;5.10;91.00
27534;DHT22;14973;51.460;7.008;2023-03-05T08:36:17;5.00;91.80
27534;DHT22;14973;51.460;7.008;2023-03-05T08:38:43;4.90;91.30
27534;DHT22;14973;51.460;7.008;2023-03-05T08:41:11;4.80;94.50
27534;DHT22;14973;51.460;7.008;2023-03-05T08:43:37;4.70;97.30
27534;DHT22;14973;51.460;7.008;2023-03-05T08:46:03;4.60;98.10
27534;DHT22;14973;51.460;7.008;2023-03-05T08:48:29;4.60;99.90
27534;DHT22;14973;51.460;7.008;2023-03-05T08:50:56;4.70;99.90
27534;DHT22;14973;51.460;7.008;2023-03-05T08:53:22;4.70;99.90
27534;DHT22;14973;51.460;7.008;2023-03-05T08:55:57;4.70;99.90
27534;DHT22;14973;51.460;7.008;2023-03-05T08:58:23;4.80;99.90
27534;DHT22;14973;51.460;7.008;2023-03-05T09:00:48;4.80;99.90
27534;DHT22;14973;51.460;7.008;2023-03-05T09:03:14;4.80;99.90
27534;DHT22;14973;51.460;7.008;2023-03-05T09:05:40;4.80;99.90
27534;DHT22;14973;51.460;7.008;2023-03-05T09:08:05;4.80;99.90
27534;DHT22;14973;51.460;7.008;2023-03-05T09:10:31;4.90;99.90
27534;DHT22;14973;51.460;7.008;2023-03-05T09:12:57;4.80;99.90
27534;DHT22;14973;51.460;7.008;2023-03-05T09:15:22;4.90;99.90
27534;DHT22;14973;51.460;7.008;2023-03-05T09:17:48;4.90;99.90
27534;DHT22;14973;51.460;7.008;2023-03-05T09:20:14;4.90;99.90
27534;DHT22;14973;51.460;7.008;2023-03-05T09:22:40;5.00;99.90
27534;DHT22;14973;51.460;7.008;2023-03-05T09:25:07;5.00;99.90
27534;DHT22;14973;51.460;7.008;2023-03-05T09:27:34;5.10;99.90
27534;DHT22;14973;51.460;7.008;2023-03-05T09:30:00;5.10;99.90
27534;DHT22;14973;51.460;7.008;2023-03-05T09:32:26;5.10;99.90
27534;DHT22;14973;51.460;7.008;2023-03-05T09:34:51;5.20;99.90
27534;DHT22;14973;51.460;7.008;2023-03-05T09:37:17;5.20;99.90
27534;DHT22;14973;51.460;7.008;2023-03-05T09:39:42;5.20;97.30
27534;DHT22;14973;51.460;7.008;2023-03-05T09:48:00;5.40;91.40
27534;DHT22;14973;51.460;7.008;2023-03-05T09:50:34;5.60;85.40
27534;DHT22;14973;51.460;7.008;2023-03-05T09:55:44;6.00;63.10
27534;DHT22;14973;51.460;7.008;2023-03-05T09:58:38;6.40;59.20
27534;DHT22;14973;51.460;7.008;2023-03-05T10:01:24;6.70;1.00
27534;DHT22;14973;51.460;7.008;2023-03-05T10:04:20;6.80;1.00
27534;DHT22;14973;51.460;7.008;2023-03-05T10:06:51;7.30;1.00
27534;DHT22;14973;51.460;7.008;2023-03-05T10:09:47;7.50;1.00
27534;DHT22;14973;51.460;7.008;2023-03-05T10:12:55;7.70;99.90
27534;DHT22;14973;51.460;7.008;2023-03-05T10:18:27;8.40;1.00
27534;DHT22;14973;51.460;7.008;2023-03-05T10:28:48;8.70;1.00
27534;DHT22;14973;51.460;7.008;2023-03-05T10:40:30;7.40;99.90
27534;DHT22;14973;51.460;7.008;2023-03-05T10:45:52;7.30;99.90
27534;DHT22;14973;51.460;7.008;2023-03-05T10:48:35;7.30;99.90
27534;DHT22;14973;51.460;7.008;2023-03-05T10:51:16;7.20;94.80
27534;DHT22;14973;51.460;7.008;2023-03-05T10:53:56;7.20;99.90
27534;DHT22;14973;51.460;7.008;2023-03-05T10:56:24;6.70;99.90
27534;DHT22;14973;51.460;7.008;2023-03-05T10:58:51;6.40;1.00
27534;DHT22;14973;51.460;7.008;2023-03-05T11:06:12;5.90;1.00
27534;DHT22;14973;51.460;7.008;2023-03-05T11:08:38;5.90;1.00
27534;DHT22;14973;51.460;7.008;2023-03-05T11:13:36;5.50;1.00
27534;DHT22;14973;51.460;7.008;2023-03-05T11:16:05;5.40;19.20
27534;DHT22;14973;51.460;7.008;2023-03-05T11:18:32;5.30;40.20
27534;DHT22;14973;51.460;7.008;2023-03-05T11:21:31;5.50;42.70
27534;DHT22;14973;51.460;7.008;2023-03-05T11:26:29;5.90;1.00
27534;DHT22;14973;51.460;7.008;2023-03-05T11:28:59;6.00;1.00
27534;DHT22;14973;51.460;7.008;2023-03-05T11:31:28;6.00;1.00
27534;DHT22;14973;51.460;7.008;2023-03-05T11:34:02;6.10;13.50
27534;DHT22;14973;51.460;7.008;2023-03-05T11:36:37;6.30;12.80
27534;DHT22;14973;51.460;7.008;2023-03-05T11:41:39;6.90;1.00
27534;DHT22;14973;51.460;7.008;2023-03-05T11:44:19;7.10;1.00
27534;DHT22;14973;51.460;7.008;2023-03-05T11:46:50;7.20;1.00
27534;DHT22;14973;51.460;7.008;2023-03-05T11:49:22;7.50;1.00
27534;DHT22;14973;51.460;7.008;2023-03-05T12:00:15;9.10;99.90
27534;DHT22;14973;51.460;7.008;2023-03-05T12:02:42;9.50;1.00
27534;DHT22;14973;51.460;7.008;2023-03-05T12:05:13;9.60;99.90
27534;DHT22;14973;51.460;7.008;2023-03-05T12:07:43;9.80;99.90
27534;DHT22;14973;51.460;7.008;2023-03-05T12:10:17;10.00;1.00
27534;DHT22;14973;51.460;7.008;2023-03-05T12:23:16;10.00;99.90
27534;DHT22;14973;51.460;7.008;2023-03-05T12:25:50;9.70;99.90
27534;DHT22;14973;51.460;7.008;2023-03-05T12:33:30;9.70;99.90
27534;DHT22;14973;51.460;7.008;2023-03-05T12:36:35;9.40;99.90
27534;DHT22;14973;51.460;7.008;2023-03-05T12:39:40;9.10;99.90
27534;DHT22;14973;51.460;7.008;2023-03-05T12:41:48;9.00;99.90
27534;DHT22;14973;51.460;7.008;2023-03-05T12:44:18;8.80;1.00
27534;DHT22;14973;51.460;7.008;2023-03-05T12:47:13;9.00;1.00
27534;DHT22;14973;51.460;7.008;2023-03-05T12:49:38;9.00;1.00
27534;DHT22;14973;51.460;7.008;2023-03-05T12:52:11;9.10;1.00
27534;DHT22;14973;51.460;7.008;2023-03-05T12:54:41;9.30;1.00
27534;DHT22;14973;51.460;7.008;2023-03-05T12:57:22;9.60;99.90
27534;DHT22;14973;51.460;7.008;2023-03-05T13:00:05;9.90;99.90
27534;DHT22;14973;51.460;7.008;2023-03-05T13:08:24;10.30;99.90
27534;DHT22;14973;51.460;7.008;2023-03-05T13:10:52;10.40;75.20
27534;DHT22;14973;51.460;7.008;2023-03-05T13:13:19;10.40;1.00
27534;DHT22;14973;51.460;7.008;2023-03-05T13:15:47;10.00;1.00
27534;DHT22;14973;51.460;7.008;2023-03-05T13:18:25;10.10;1.00
27534;DHT22;14973;51.460;7.008;2023-03-05T13:21:05;10.00;1.00
27534;DHT22;14973;51.460;7.008;2023-03-05T13:23:33;10.10;99.90
27534;DHT22;14973;51.460;7.008;2023-03-05T13:28:33;10.00;99.90
27534;DHT22;14973;51.460;7.008;2023-03-05T13:31:01;10.20;99.90
27534;DHT22;14973;51.460;7.008;2023-03-05T13:33:31;10.20;99.90
27534;DHT22;14973;51.460;7.008;2023-03-05T13:35:57;10.20;99.90
27534;DHT22;14973;51.460;7.008;2023-03-05T13:38:35;10.00;99.90
27534;DHT22;14973;51.460;7.008;2023-03-05T13:43:59;9.20;99.90
27534;DHT22;14973;51.460;7.008;2023-03-05T13:46:26;9.20;99.90
27534;DHT22;14973;51.460;7.008;2023-03-05T13:48:53;9.00;99.90
27534;DHT22;14973;51.460;7.008;2023-03-05T13:51:18;8.90;1.00
27534;DHT22;14973;51.460;7.008;2023-03-05T13:53:44;9.00;1.00
27534;DHT22;14973;51.460;7.008;2023-03-05T13:56:16;9.20;1.00
27534;DHT22;14973;51.460;7.008;2023-03-05T13:58:55;9.30;1.00
27534;DHT22;14973;51.460;7.008;2023-03-05T14:01:33;9.10;1.00
27534;DHT22;14973;51.460;7.008;2023-03-05T14:04:26;8.70;1.00
27534;DHT22;14973;51.460;7.008;2023-03-05T14:07:05;8.80;1.00
27534;DHT22;14973;51.460;7.008;2023-03-05T14:12:05;8.80;1.00
27534;DHT22;14973;51.460;7.008;2023-03-05T14:14:34;9.10;1.00
27534;DHT22;14973;51.460;7.008;2023-03-05T14:20:13;9.10;1.00
27534;DHT22;14973;51.460;7.008;2023-03-05T14:22:46;9.20;99.90
27534;DHT22;14973;51.460;7.008;2023-03-05T14:25:48;9.00;99.90
27534;DHT22;14973;51.460;7.008;2023-03-05T14:30:50;9.00;99.90
27534;DHT22;14973;51.460;7.008;2023-03-05T14:33:25;8.70;99.90
27534;DHT22;14973;51.460;7.008;2023-03-05T14:35:53;8.70;99.90
27534;DHT22;14973;51.460;7.008;2023-03-05T14:38:26;8.70;99.90
27534;DHT22;14973;51.460;7.008;2023-03-05T14:40:53;8.80;99.90
27534;DHT22;14973;51.460;7.008;2023-03-05T14:43:18;8.70;99.90
27534;DHT22;14973;51.460;7.008;2023-03-05T14:45:44;8.70;1.00
27534;DHT22;14973;51.460;7.008;2023-03-05T14:48:14;8.80;1.00
27534;DHT22;14973;51.460;7.008;2023-03-05T14:50:44;8.70;99.90
27534;DHT22;14973;51.460;7.008;2023-03-05T14:53:16;8.50;99.90
27534;DHT22;14973;51.460;7.008;2023-03-05T14:55:42;8.60;1.00
27534;DHT22;14973;51.460;7.008;2023-03-05T14:58:21;8.40;1.00
27534;DHT22;14973;51.460;7.008;2023-03-05T15:00:48;8.30;1.00
27534;DHT22;14973;51.460;7.008;2023-03-05T15:03:15;8.10;1.00
27534;DHT22;14973;51.460;7.008;2023-03-05T15:05:43;8.10;1.00
27534;DHT22;14973;51.460;7.008;2023-03-05T15:08:24;8.20;1.00
27534;DHT22;14973;51.460;7.008;2023-03-05T15:10:50;8.40;1.00
27534;DHT22;14973;51.460;7.008;2023-03-05T15:13:16;8.40;1.00
27534;DHT22;14973;51.460;7.008;2023-03-05T15:15:42;8.40;1.00
27534;DHT22;14973;51.460;7.008;2023-03-05T15:18:12;8.50;1.00
27534;DHT22;14973;51.460;7.008;2023-03-05T15:20:38;8.30;1.00
27534;DHT22;14973;51.460;7.008;2023-03-05T15:23:05;8.20;1.00
27534;DHT22;14973;51.460;7.008;2023-03-05T15:25:31;8.10;1.00
27534;DHT22;14973;51.460;7.008;2023-03-05T15:27:57;8.10;1.00
27534;DHT22;14973;51.460;7.008;2023-03-05T15:30:29;7.80;1.00
27534;DHT22;14973;51.460;7.008;2023-03-05T15:32:56;7.80;1.00
27534;DHT22;14973;51.460;7.008;2023-03-05T15:35:23;7.80;1.00
27534;DHT22;14973;51.460;7.008;2023-03-05T15:37:50;7.90;1.00
27534;DHT22;14973;51.460;7.008;2023-03-05T15:40:16;8.00;1.00
27534;DHT22;14973;51.460;7.008;2023-03-05T15:42:42;8.00;1.00
27534;DHT22;14973;51.460;7.008;2023-03-05T15:45:08;8.00;1.00
27534;DHT22;14973;51.460;7.008;2023-03-05T15:47:34;7.90;1.00
27534;DHT22;14973;51.460;7.008;2023-03-05T15:49:59;7.90;1.00
27534;DHT22;14973;51.460;7.008;2023-03-05T15:52:25;7.60;1.00
27534;DHT22;14973;51.460;7.008;2023-03-05T15:54:51;7.50;1.00
27534;DHT22;14973;51.460;7.008;2023-03-05T15:57:18;7.60;1.00
27534;DHT22;14973;51.460;7.008;2023-03-05T15:59:47;7.50;1.00
27534;DHT22;14973;51.460;7.008;2023-03-05T16:02:12;7.50;1.00
27534;DHT22;14973;51.460;7.008;2023-03-05T16:04:38;7.40;1.00
27534;DHT22;14973;51.460;7.008;2023-03-05T16:07:05;7.40;1.00
27534;DHT22;14973;51.460;7.008;2023-03-05T16:09:35;7.30;1.00
27534;DHT22;14973;51.460;7.008;2023-03-05T16:12:02;7.30;1.00
27534;DHT22;14973;51.460;7.008;2023-03-05T16:14:32;7.30;5.50
27534;DHT22;14973;51.460;7.008;2023-03-05T16:16:59;7.10;73.80
27534;DHT22;14973;51.460;7.008;2023-03-05T16:19:28;7.10;99.90
27534;DHT22;14973;51.460;7.008;2023-03-05T16:21:55;7.00;99.90
27534;DHT22;14973;51.460;7.008;2023-03-05T16:24:21;6.90;99.90
27534;DHT22;14973;51.460;7.008;2023-03-05T16:26:47;6.80;99.90
27534;DHT22;14973;51.460;7.008;2023-03-05T16:29:13;6.80;99.90
27534;DHT22;14973;51.460;7.008;2023-03-05T16:31:39;6.70;1.00
27534;DHT22;14973;51.460;7.008;2023-03-05T16:34:10;6.60;99.90
27534;DHT22;14973;51.460;7.008;2023-03-05T16:36:39;6.60;1.00
27534;DHT22;14973;51.460;7.008;2023-03-05T16:39:06;6.50;1.00
27534;DHT22;14973;51.460;7.008;2023-03-05T16:41:32;6.40;99.90
27534;DHT22;14973;51.460;7.008;2023-03-05T16:43:58;6.50;99.90
27534;DHT22;14973;51.460;7.008;2023-03-05T16:46:26;6.40;99.90
27534;DHT22;14973;51.460;7.008;2023-03-05T16:48:52;6.30;99.90
27534;DHT22;14973;51.460;7.008;2023-03-05T16:51:18;6.30;99.90
27534;DHT22;14973;51.460;7.008;2023-03-05T16:53:44;6.20;99.90
27534;DHT22;14973;51.460;7.008;2023-03-05T16:56:10;6.20;1.00
27534;DHT22;14973;51.460;7.008;2023-03-05T16:58:37;6.10;99.90
27534;DHT22;14973;51.460;7.008;2023-03-05T17:01:11;6.10;99.90
27534;DHT22;14973;51.460;7.008;2023-03-05T17:03:38;6.10;99.90
27534;DHT22;14973;51.460;7.008;2023-03-05T17:06:18;6.10;90.60
27534;DHT22;14973;51.460;7.008;2023-03-05T17:08:45;6.10;98.60
27534;DHT22;14973;51.460;7.008;2023-03-05T17:11:12;6.00;99.90
27534;DHT22;14973;51.460;7.008;2023-03-05T17:13:38;5.90;99.90
27534;DHT22;14973;51.460;7.008;2023-03-05T17:16:05;5.90;99.90
27534;DHT22;14973;51.460;7.008;2023-03-05T17:18:31;5.90;99.90
27534;DHT22;14973;51.460;7.008;2023-03-05T17:20:57;5.80;99.90
27534;DHT22;14973;51.460;7.008;2023-03-05T17:23:23;5.90;1.00
27534;DHT22;14973;51.460;7.008;2023-03-05T17:25:49;5.80;1.00